createdAt,value
2022-08-26T00:00:40.743Z,7.90
2022-08-26T00:01:40.926Z,7.90
2022-08-26T00:02:41.095Z,8.50
2022-08-26T00:03:41.283Z,8.10
2022-08-26T00:04:41.416Z,8.20
2022-08-26T00:05:41.587Z,8.00
2022-08-26T00:06:42.569Z,8.10
2022-08-26T00:07:41.937Z,8.20
2022-08-26T00:08:42.101Z,7.90
2022-08-26T00:09:42.268Z,8.60
2022-08-26T00:10:43.427Z,8.10
2022-08-26T00:11:42.590Z,8.70
2022-08-26T00:12:42.769Z,8.30
2022-08-26T00:13:48.905Z,8.60
2022-08-26T00:14:44.128Z,8.20
2022-08-26T00:15:43.290Z,8.20
2022-08-26T00:16:48.185Z,8.10
2022-08-26T00:17:44.670Z,8.20
2022-08-26T00:18:43.813Z,8.60
2022-08-26T00:19:43.982Z,8.20
2022-08-26T00:20:44.143Z,8.50
2022-08-26T00:21:44.315Z,8.30
2022-08-26T00:22:44.500Z,8.10
2022-08-26T00:23:44.666Z,8.20
2022-08-26T00:24:47.845Z,8.30
2022-08-26T00:25:44.997Z,8.10
2022-08-26T00:26:45.155Z,8.10
2022-08-26T00:27:45.369Z,8.30
2022-08-26T00:28:45.503Z,8.20
2022-08-26T00:29:45.677Z,7.90
2022-08-26T00:30:45.847Z,8.20
2022-08-26T00:31:46.089Z,8.10
2022-08-26T00:32:46.442Z,8.10
2022-08-26T00:33:46.358Z,8.20
2022-08-26T00:34:46.534Z,8.10
2022-08-26T00:35:46.698Z,8.00
2022-08-26T00:36:46.872Z,8.10
2022-08-26T00:37:47.061Z,7.70
2022-08-26T00:38:47.199Z,8.50
2022-08-26T00:39:47.436Z,8.40
2022-08-26T00:40:47.529Z,7.90
2022-08-26T00:41:47.691Z,8.40
2022-08-26T00:42:47.881Z,8.00
2022-08-26T00:43:48.147Z,8.10
2022-08-26T00:44:48.212Z,8.10
2022-08-26T00:45:48.447Z,7.70
2022-08-26T00:46:48.572Z,8.10
2022-08-26T00:47:48.773Z,7.90
2022-08-26T00:48:49.327Z,7.80
2022-08-26T00:49:49.064Z,7.80
2022-08-26T00:50:49.246Z,7.70
2022-08-26T00:51:49.416Z,8.40
2022-08-26T00:52:49.606Z,8.00
2022-08-26T00:53:49.754Z,7.60
2022-08-26T00:54:49.930Z,8.00
2022-08-26T00:55:50.110Z,7.90
2022-08-26T00:56:50.277Z,8.00
2022-08-26T00:57:50.468Z,7.90
2022-08-26T00:58:50.638Z,7.90
2022-08-26T00:59:50.806Z,7.40
2022-08-26T01:00:51.009Z,8.50
2022-08-26T01:01:51.162Z,8.30
2022-08-26T01:02:51.309Z,8.10
2022-08-26T01:03:51.482Z,8.20
2022-08-26T01:04:55.631Z,8.30
2022-08-26T01:05:51.812Z,8.70
2022-08-26T01:06:51.992Z,7.70
2022-08-26T01:07:52.203Z,8.20
2022-08-26T01:08:52.333Z,8.50
2022-08-26T01:09:52.497Z,8.10
2022-08-26T01:10:55.790Z,7.90
2022-08-26T01:11:52.824Z,8.70
2022-08-26T01:12:53.003Z,8.70
2022-08-26T01:13:53.172Z,8.30
2022-08-26T01:14:53.344Z,8.70
2022-08-26T01:15:53.525Z,8.40
2022-08-26T01:16:53.693Z,7.90
2022-08-26T01:17:53.872Z,8.80
2022-08-26T01:18:54.051Z,8.10
2022-08-26T01:19:54.208Z,8.30
2022-08-26T01:20:57.718Z,8.40
2022-08-26T01:21:54.552Z,8.60
2022-08-26T01:22:54.759Z,8.60
2022-08-26T01:23:57.722Z,8.20
2022-08-26T01:24:55.079Z,8.30
2022-08-26T01:25:55.250Z,8.30
2022-08-26T01:26:55.431Z,8.60
2022-08-26T01:27:55.634Z,8.50
2022-08-26T01:28:55.751Z,8.50
2022-08-26T01:29:55.917Z,7.90
2022-08-26T01:30:56.080Z,8.30
2022-08-26T01:31:56.333Z,8.10
2022-08-26T01:32:56.452Z,8.50
2022-08-26T01:33:56.642Z,8.20
2022-08-26T01:34:56.823Z,8.50
2022-08-26T01:35:56.992Z,7.60
2022-08-26T01:36:57.158Z,8.00
2022-08-26T01:37:57.345Z,8.10
2022-08-26T01:38:57.525Z,7.70
2022-08-26T01:39:57.731Z,8.40
2022-08-26T01:40:57.885Z,7.90
2022-08-26T01:41:58.054Z,7.70
2022-08-26T01:42:59.225Z,7.90
2022-08-26T01:43:58.395Z,8.70
2022-08-26T01:44:58.567Z,8.00
2022-08-26T01:45:58.787Z,8.00
2022-08-26T01:46:58.927Z,8.30
2022-08-26T01:47:59.097Z,8.10
2022-08-26T01:48:59.318Z,7.50
2022-08-26T01:49:59.452Z,7.70
2022-08-26T01:50:59.629Z,8.20
2022-08-26T01:51:59.799Z,8.20
2022-08-26T01:52:59.970Z,7.80
2022-08-26T01:54:00.161Z,7.90
2022-08-26T01:55:00.325Z,8.30
2022-08-26T01:56:00.491Z,8.30
2022-08-26T01:57:00.671Z,8.00
2022-08-26T01:58:00.842Z,8.20
2022-08-26T01:59:01.021Z,8.00
2022-08-26T02:00:01.154Z,8.10
2022-08-26T02:01:01.447Z,7.80
2022-08-26T02:02:01.496Z,8.00
2022-08-26T02:03:01.723Z,8.00
2022-08-26T02:04:01.863Z,8.00
2022-08-26T02:05:02.033Z,8.30
2022-08-26T02:06:02.195Z,8.60
2022-08-26T02:07:02.366Z,8.00
2022-08-26T02:08:02.534Z,8.10
2022-08-26T02:09:02.739Z,8.30
2022-08-26T02:10:02.916Z,8.40
2022-08-26T02:11:03.076Z,8.10
2022-08-26T02:12:03.246Z,8.10
2022-08-26T02:13:03.407Z,8.00
2022-08-26T02:14:03.589Z,8.00
2022-08-26T02:15:05.721Z,7.90
2022-08-26T02:16:03.975Z,8.20
2022-08-26T02:17:04.100Z,7.90
2022-08-26T02:18:04.249Z,7.90
2022-08-26T02:19:04.430Z,7.70
2022-08-26T02:20:04.585Z,7.70
2022-08-26T02:21:06.707Z,8.20
2022-08-26T02:22:04.918Z,7.90
2022-08-26T02:23:05.106Z,7.60
2022-08-26T02:24:05.301Z,8.00
2022-08-26T02:25:05.485Z,8.30
2022-08-26T02:26:05.624Z,8.30
2022-08-26T02:27:05.801Z,7.90
2022-08-26T02:28:05.968Z,8.00
2022-08-26T02:29:06.143Z,8.50
2022-08-26T02:30:06.322Z,8.10
2022-08-26T02:31:06.536Z,7.90
2022-08-26T02:32:06.672Z,8.00
2022-08-26T02:33:06.994Z,8.20
2022-08-26T02:34:07.016Z,7.50
2022-08-26T02:35:07.206Z,7.80
2022-08-26T02:36:07.376Z,7.90
2022-08-26T02:37:07.544Z,8.20
2022-08-26T02:38:10.242Z,8.00
2022-08-26T02:39:07.888Z,7.70
2022-08-26T02:40:08.061Z,7.90
2022-08-26T02:41:08.189Z,7.50
2022-08-26T02:42:08.364Z,8.20
2022-08-26T02:43:08.805Z,7.80
2022-08-26T02:44:08.714Z,8.10
2022-08-26T02:45:08.871Z,8.20
2022-08-26T02:46:09.030Z,8.00
2022-08-26T02:47:09.246Z,8.10
2022-08-26T02:48:09.393Z,7.80
2022-08-26T02:49:09.561Z,8.20
2022-08-26T02:50:09.738Z,8.00
2022-08-26T02:51:09.907Z,7.90
2022-08-26T02:52:10.090Z,7.90
2022-08-26T02:53:10.253Z,8.20
2022-08-26T02:54:10.443Z,8.30
2022-08-26T02:55:10.595Z,8.00
2022-08-26T02:56:10.764Z,8.20
2022-08-26T02:57:10.936Z,8.30
2022-08-26T02:58:11.106Z,7.90
2022-08-26T02:59:11.289Z,8.00
2022-08-26T03:00:11.479Z,8.30
2022-08-26T03:01:11.697Z,8.10
2022-08-26T03:02:11.884Z,8.10
2022-08-26T03:03:12.003Z,8.30
2022-08-26T03:04:12.257Z,8.20
2022-08-26T03:05:12.327Z,8.60
2022-08-26T03:06:12.519Z,8.40
2022-08-26T03:07:12.689Z,7.90
2022-08-26T03:08:12.872Z,8.00
2022-08-26T03:09:18.493Z,8.00
2022-08-26T03:10:14.244Z,8.30
2022-08-26T03:11:13.394Z,8.10
2022-08-26T03:12:13.571Z,7.90
2022-08-26T03:13:13.752Z,8.00
2022-08-26T03:14:13.930Z,8.40
2022-08-26T03:15:15.633Z,8.50
2022-08-26T03:16:14.320Z,8.20
2022-08-26T03:17:14.417Z,8.50
2022-08-26T03:18:14.592Z,8.20
2022-08-26T03:19:14.762Z,8.80
2022-08-26T03:20:15.551Z,8.60
2022-08-26T03:21:15.140Z,8.60
2022-08-26T03:22:15.305Z,8.00
2022-08-26T03:23:15.466Z,8.00
2022-08-26T03:24:15.634Z,8.40
2022-08-26T03:25:15.806Z,8.20
2022-08-26T03:26:15.994Z,8.70
2022-08-26T03:27:16.156Z,8.20
2022-08-26T03:28:16.337Z,7.90
2022-08-26T03:29:16.647Z,8.00
2022-08-26T03:30:16.689Z,8.40
2022-08-26T03:31:16.899Z,8.50
2022-08-26T03:32:17.039Z,8.00
2022-08-26T03:33:17.208Z,8.40
2022-08-26T03:34:17.391Z,8.20
2022-08-26T03:35:17.590Z,8.20
2022-08-26T03:36:17.739Z,8.40
2022-08-26T03:37:17.906Z,7.70
2022-08-26T03:38:18.069Z,7.70
2022-08-26T03:39:18.244Z,8.00
2022-08-26T03:40:20.266Z,8.20
2022-08-26T03:41:18.582Z,8.70
2022-08-26T03:42:21.525Z,8.20
2022-08-26T03:43:18.937Z,8.30
2022-08-26T03:44:19.116Z,8.60
2022-08-26T03:45:19.285Z,8.10
2022-08-26T03:46:19.464Z,8.90
2022-08-26T03:47:19.606Z,8.40
2022-08-26T03:48:19.774Z,8.10
2022-08-26T03:49:19.937Z,8.40
2022-08-26T03:50:22.693Z,8.20
2022-08-26T03:51:20.277Z,8.50
2022-08-26T03:52:20.456Z,7.90
2022-08-26T03:53:20.697Z,8.10
2022-08-26T03:54:20.804Z,8.10
2022-08-26T03:55:21.007Z,8.40
2022-08-26T03:56:21.149Z,8.00
2022-08-26T03:57:21.322Z,8.40
2022-08-26T03:58:21.508Z,8.10
2022-08-26T03:59:21.669Z,8.10
2022-08-26T04:00:21.851Z,7.90
2022-08-26T04:01:22.082Z,8.20
2022-08-26T04:02:22.201Z,8.50
2022-08-26T04:03:22.398Z,8.60
2022-08-26T04:04:22.714Z,8.70
2022-08-26T04:05:22.875Z,8.30
2022-08-26T04:06:22.892Z,8.60
2022-08-26T04:07:23.053Z,8.70
2022-08-26T04:08:23.224Z,8.50
2022-08-26T04:09:23.393Z,8.40
2022-08-26T04:10:29.303Z,7.80
2022-08-26T04:11:24.764Z,8.60
2022-08-26T04:12:23.925Z,7.80
2022-08-26T04:13:24.095Z,7.90
2022-08-26T04:14:24.275Z,8.60
2022-08-26T04:15:24.484Z,7.90
2022-08-26T04:16:24.699Z,7.90
2022-08-26T04:17:25.042Z,8.20
2022-08-26T04:18:25.018Z,8.50
2022-08-26T04:19:25.168Z,8.70
2022-08-26T04:20:25.357Z,8.60
2022-08-26T04:21:25.538Z,8.30
2022-08-26T04:22:25.678Z,8.10
2022-08-26T04:23:25.869Z,8.90
2022-08-26T04:24:26.019Z,9.10
2022-08-26T04:25:26.209Z,8.10
2022-08-26T04:26:26.361Z,8.20
2022-08-26T04:27:26.551Z,8.50
2022-08-26T04:28:26.712Z,8.40
2022-08-26T04:29:26.900Z,8.20
2022-08-26T04:30:27.100Z,8.50
2022-08-26T04:31:27.299Z,8.10
2022-08-26T04:32:27.442Z,9.00
2022-08-26T04:33:32.627Z,8.10
2022-08-26T04:34:29.096Z,8.60
2022-08-26T04:35:27.974Z,7.80
2022-08-26T04:36:28.134Z,7.90
2022-08-26T04:37:28.313Z,8.20
2022-08-26T04:38:28.467Z,8.90
2022-08-26T04:39:28.633Z,7.90
2022-08-26T04:40:28.860Z,8.00
2022-08-26T04:41:28.977Z,8.10
2022-08-26T04:42:29.147Z,9.00
2022-08-26T04:43:29.337Z,8.30
2022-08-26T04:44:29.519Z,8.00
2022-08-26T04:45:29.729Z,8.30
2022-08-26T04:46:29.935Z,8.10
2022-08-26T04:47:32.381Z,9.00
2022-08-26T04:48:30.242Z,8.60
2022-08-26T04:49:35.103Z,9.10
2022-08-26T04:50:31.609Z,9.20
2022-08-26T04:51:30.790Z,8.40
2022-08-26T04:52:31.050Z,8.40
2022-08-26T04:53:31.101Z,8.70
2022-08-26T04:54:31.290Z,8.50
2022-08-26T04:55:39.801Z,8.70
2022-08-26T04:56:32.642Z,8.40
2022-08-26T04:57:31.793Z,8.40
2022-08-26T04:58:31.954Z,8.20
2022-08-26T04:59:34.976Z,8.20
2022-08-26T05:00:33.295Z,8.10
2022-08-26T05:01:32.502Z,8.30
2022-08-26T05:02:32.677Z,8.20
2022-08-26T05:03:32.856Z,8.20
2022-08-26T05:04:33.006Z,8.70
2022-08-26T05:05:33.202Z,8.00
2022-08-26T05:06:36.937Z,8.60
2022-08-26T05:07:33.547Z,8.50
2022-08-26T05:08:33.717Z,8.70
2022-08-26T05:09:33.866Z,8.30
2022-08-26T05:10:34.063Z,8.70
2022-08-26T05:11:34.238Z,8.40
2022-08-26T05:12:34.400Z,8.70
2022-08-26T05:13:34.570Z,8.40
2022-08-26T05:14:34.730Z,8.60
2022-08-26T05:15:34.929Z,8.90
2022-08-26T05:16:35.102Z,8.50
2022-08-26T05:17:35.280Z,7.90
2022-08-26T05:18:35.811Z,8.60
2022-08-26T05:19:35.612Z,8.50
2022-08-26T05:20:35.792Z,8.40
2022-08-26T05:21:35.982Z,8.80
2022-08-26T05:22:36.155Z,8.90
2022-08-26T05:23:36.323Z,8.60
2022-08-26T05:24:36.505Z,9.20
2022-08-26T05:25:36.684Z,9.50
2022-08-26T05:26:36.874Z,9.10
2022-08-26T05:27:37.054Z,8.70
2022-08-26T05:28:37.224Z,9.00
2022-08-26T05:29:37.396Z,9.20
2022-08-26T05:30:37.576Z,9.20
2022-08-26T05:31:37.760Z,8.60
2022-08-26T05:32:37.927Z,8.40
2022-08-26T05:33:38.104Z,8.50
2022-08-26T05:34:38.329Z,8.40
2022-08-26T05:35:38.455Z,8.70
2022-08-26T05:36:38.649Z,8.60
2022-08-26T05:37:38.798Z,9.20
2022-08-26T05:38:38.970Z,8.50
2022-08-26T05:39:39.147Z,8.90
2022-08-26T05:40:39.398Z,8.50
2022-08-26T05:41:39.510Z,8.70
2022-08-26T05:42:39.689Z,8.30
2022-08-26T05:43:39.854Z,8.40
2022-08-26T05:44:55.455Z,8.70
2022-08-26T05:45:45.271Z,8.90
2022-08-26T05:46:41.475Z,8.30
2022-08-26T05:47:40.592Z,8.10
2022-08-26T05:48:40.732Z,8.50
2022-08-26T05:49:41.831Z,8.30
2022-08-26T05:50:42.084Z,8.50
2022-08-26T05:51:41.257Z,8.80
2022-08-26T05:52:41.444Z,8.30
2022-08-26T05:53:43.757Z,8.10
2022-08-26T05:54:42.775Z,8.00
2022-08-26T05:55:41.950Z,8.50
2022-08-26T05:56:42.147Z,8.40
2022-08-26T05:57:43.019Z,8.60
2022-08-26T05:58:42.481Z,8.90
2022-08-26T05:59:42.656Z,8.80
2022-08-26T06:00:42.818Z,8.60
2022-08-26T06:01:43.094Z,8.30
2022-08-26T06:02:43.220Z,8.40
2022-08-26T06:03:44.343Z,8.50
2022-08-26T06:04:43.509Z,8.80
2022-08-26T06:05:43.689Z,8.40
2022-08-26T06:06:43.870Z,8.40
2022-08-26T06:07:44.028Z,8.80
2022-08-26T06:08:44.211Z,8.20
2022-08-26T06:09:44.378Z,8.60
2022-08-26T06:10:44.551Z,8.50
2022-08-26T06:11:44.749Z,8.30
2022-08-26T06:12:44.989Z,9.00
2022-08-26T06:13:45.063Z,8.60
2022-08-26T06:14:45.243Z,8.70
2022-08-26T06:15:45.479Z,8.90
2022-08-26T06:16:45.634Z,9.00
2022-08-26T06:17:45.799Z,8.60
2022-08-26T06:18:45.963Z,8.20
2022-08-26T06:19:46.145Z,8.90
2022-08-26T06:20:57.310Z,9.20
2022-08-26T06:21:47.526Z,8.80
2022-08-26T06:22:47.691Z,9.20
2022-08-26T06:23:46.880Z,9.60
2022-08-26T06:24:47.047Z,8.80
2022-08-26T06:25:47.228Z,8.80
2022-08-26T06:26:50.367Z,9.00
2022-08-26T06:27:47.606Z,9.10
2022-08-26T06:28:47.779Z,9.00
2022-08-26T06:29:47.968Z,8.90
2022-08-26T06:30:48.223Z,8.90
2022-08-26T06:31:48.340Z,8.50
2022-08-26T06:32:48.524Z,9.00
2022-08-26T06:33:48.728Z,8.60
2022-08-26T06:34:48.891Z,8.80
2022-08-26T06:35:49.091Z,8.20
2022-08-26T06:36:49.250Z,8.50
2022-08-26T06:37:49.424Z,8.30
2022-08-26T06:38:49.623Z,8.80
2022-08-26T06:39:49.800Z,8.50
2022-08-26T06:40:49.965Z,9.00
2022-08-26T06:41:50.153Z,8.50
2022-08-26T06:42:50.352Z,8.00
2022-08-26T06:43:50.514Z,8.10
2022-08-26T06:44:50.704Z,7.90
2022-08-26T06:45:50.885Z,8.20
2022-08-26T06:46:51.462Z,8.20
2022-08-26T06:47:51.299Z,9.00
2022-08-26T06:48:51.441Z,8.90
2022-08-26T06:49:51.617Z,8.00
2022-08-26T06:50:51.808Z,8.60
2022-08-26T06:51:51.988Z,9.10
2022-08-26T06:52:52.188Z,9.00
2022-08-26T06:53:52.348Z,9.00
2022-08-26T06:54:52.564Z,8.40
2022-08-26T06:55:52.722Z,7.90
2022-08-26T06:56:52.907Z,8.20
2022-08-26T06:57:53.101Z,8.40
2022-08-26T06:58:53.283Z,8.00
2022-08-26T06:59:53.461Z,7.80
2022-08-26T07:00:53.652Z,8.20
2022-08-26T07:01:53.841Z,7.90
2022-08-26T07:02:54.036Z,8.80
2022-08-26T07:03:54.316Z,8.80
2022-08-26T07:04:54.381Z,9.30
2022-08-26T07:05:54.551Z,9.30
2022-08-26T07:06:54.733Z,8.60
2022-08-26T07:07:54.914Z,8.80
2022-08-26T07:08:55.082Z,8.60
2022-08-26T07:09:55.273Z,8.90
2022-08-26T07:10:55.979Z,8.70
2022-08-26T07:11:55.634Z,8.30
2022-08-26T07:12:55.834Z,8.70
2022-08-26T07:13:55.987Z,8.50
2022-08-26T07:14:56.177Z,8.80
2022-08-26T07:15:57.267Z,8.70
2022-08-26T07:16:56.529Z,9.40
2022-08-26T07:17:56.708Z,8.60
2022-08-26T07:18:56.895Z,8.70
2022-08-26T07:19:57.048Z,9.60
2022-08-26T07:20:57.228Z,9.20
2022-08-26T07:21:57.419Z,9.00
2022-08-26T07:22:57.620Z,8.80
2022-08-26T07:24:01.209Z,8.60
2022-08-26T07:24:57.960Z,8.60
2022-08-26T07:25:58.151Z,9.20
2022-08-26T07:26:58.334Z,8.00
2022-08-26T07:27:58.609Z,9.30
2022-08-26T07:28:59.402Z,8.50
2022-08-26T07:29:58.883Z,9.10
2022-08-26T07:30:59.088Z,9.50
2022-08-26T07:31:59.252Z,8.70
2022-08-26T07:32:59.453Z,9.50
2022-08-26T07:33:59.602Z,9.30
2022-08-26T07:34:59.794Z,9.30
2022-08-26T07:35:59.946Z,9.00
2022-08-26T07:37:00.135Z,8.60
2022-08-26T07:38:00.345Z,8.70
2022-08-26T07:39:00.468Z,8.90
2022-08-26T07:40:00.693Z,9.00
2022-08-26T07:41:00.827Z,8.90
2022-08-26T07:42:01.050Z,8.70
2022-08-26T07:43:01.226Z,8.40
2022-08-26T07:44:01.383Z,8.50
2022-08-26T07:45:01.570Z,8.30
2022-08-26T07:46:01.744Z,8.70
2022-08-26T07:47:01.930Z,8.20
2022-08-26T07:48:02.120Z,8.70
2022-08-26T07:49:02.351Z,9.00
2022-08-26T07:50:02.450Z,8.20
2022-08-26T07:51:02.640Z,8.70
2022-08-26T07:52:02.822Z,9.20
2022-08-26T07:53:03.029Z,8.40
2022-08-26T07:54:03.218Z,8.60
2022-08-26T07:55:03.373Z,8.50
2022-08-26T07:56:03.562Z,8.80
2022-08-26T07:57:05.212Z,8.10
2022-08-26T07:58:04.960Z,8.70
2022-08-26T07:59:04.103Z,8.80
2022-08-26T08:00:05.277Z,8.50
2022-08-26T08:01:04.510Z,8.80
2022-08-26T08:02:04.624Z,8.70
2022-08-26T08:03:04.836Z,8.50
2022-08-26T08:04:05.005Z,8.50
2022-08-26T08:05:05.230Z,8.30
2022-08-26T08:06:05.356Z,8.10
2022-08-26T08:07:05.548Z,8.60
2022-08-26T08:08:27.091Z,8.40
2022-08-26T08:09:06.942Z,8.70
2022-08-26T08:10:09.768Z,8.20
2022-08-26T08:11:07.258Z,8.20
2022-08-26T08:12:06.454Z,8.80
2022-08-26T08:13:06.773Z,8.60
2022-08-26T08:14:08.528Z,8.20
2022-08-26T08:15:06.970Z,8.00
2022-08-26T08:16:07.149Z,8.60
2022-08-26T08:17:08.653Z,8.20
2022-08-26T08:18:07.512Z,8.20
2022-08-26T08:19:08.691Z,8.70
2022-08-26T08:20:07.864Z,8.60
2022-08-26T08:21:21.974Z,8.00
2022-08-26T08:22:17.957Z,8.40
2022-08-26T08:23:09.412Z,8.30
2022-08-26T08:24:08.589Z,8.50
2022-08-26T08:25:10.505Z,8.40
2022-08-26T08:26:08.965Z,8.20
2022-08-26T08:27:09.122Z,8.40
2022-08-26T08:28:09.415Z,9.10
2022-08-26T08:29:09.475Z,8.80
2022-08-26T08:30:09.678Z,8.50
2022-08-26T08:31:09.888Z,8.80
2022-08-26T08:32:11.600Z,8.20
2022-08-26T08:33:11.207Z,8.70
2022-08-26T08:34:10.401Z,8.70
2022-08-26T08:35:11.064Z,8.50
2022-08-26T08:36:10.739Z,8.70
2022-08-26T08:37:11.928Z,8.70
2022-08-26T08:38:11.098Z,8.70
2022-08-26T08:39:11.298Z,8.20
2022-08-26T08:40:11.559Z,9.10
2022-08-26T08:41:11.631Z,8.60
2022-08-26T08:42:11.818Z,9.20
2022-08-26T08:43:11.981Z,8.70
2022-08-26T08:44:12.211Z,8.70
2022-08-26T08:45:12.343Z,8.60
2022-08-26T08:46:12.566Z,8.30
2022-08-26T08:47:12.697Z,8.50
2022-08-26T08:48:12.887Z,8.00
2022-08-26T08:49:13.063Z,8.50
2022-08-26T08:50:13.223Z,8.40
2022-08-26T08:51:13.389Z,7.80
2022-08-26T08:52:13.555Z,8.10
2022-08-26T08:53:13.765Z,8.40
2022-08-26T08:54:13.931Z,8.60
2022-08-26T08:55:17.404Z,8.20
2022-08-26T08:56:14.309Z,8.60
2022-08-26T08:57:14.488Z,8.20
2022-08-26T08:58:14.657Z,8.40
2022-08-26T08:59:14.817Z,7.70
2022-08-26T09:00:15.000Z,8.10
2022-08-26T09:01:15.206Z,8.30
2022-08-26T09:02:15.405Z,7.80
2022-08-26T09:03:15.571Z,7.70
2022-08-26T09:04:17.328Z,7.50
2022-08-26T09:05:15.920Z,7.80
2022-08-26T09:06:16.080Z,7.80
2022-08-26T09:07:16.251Z,8.20
2022-08-26T09:08:16.444Z,8.00
2022-08-26T09:09:16.703Z,8.20
2022-08-26T09:10:16.897Z,7.90
2022-08-26T09:11:16.973Z,7.50
2022-08-26T09:12:17.173Z,7.00
2022-08-26T09:13:25.426Z,7.20
2022-08-26T09:14:18.522Z,6.90
2022-08-26T09:15:17.703Z,8.10
2022-08-26T09:16:18.985Z,7.90
2022-08-26T09:17:18.044Z,7.10
2022-08-26T09:18:18.225Z,7.70
2022-08-26T09:19:18.863Z,6.90
2022-08-26T09:20:18.585Z,7.00
2022-08-26T09:21:18.816Z,7.00
2022-08-26T09:22:18.996Z,7.00
2022-08-26T09:23:19.148Z,7.00
2022-08-26T09:24:19.404Z,6.80
2022-08-26T09:25:19.507Z,7.20
2022-08-26T09:26:19.720Z,6.60
2022-08-26T09:27:19.868Z,7.20
2022-08-26T09:28:20.060Z,6.90
2022-08-26T09:30:20.421Z,6.90
2022-08-26T09:31:20.643Z,6.50
2022-08-26T09:32:20.788Z,7.20
2022-08-26T09:33:20.950Z,6.50
2022-08-26T09:34:21.141Z,6.90
2022-08-26T09:35:21.328Z,6.90
2022-08-26T09:36:21.528Z,6.30
2022-08-26T09:37:21.684Z,6.60
2022-08-26T09:38:21.866Z,6.70
2022-08-26T09:39:22.044Z,6.70
2022-08-26T09:40:22.319Z,7.20
2022-08-26T09:41:22.424Z,7.00
2022-08-26T09:42:22.574Z,6.90
2022-08-26T09:43:23.188Z,6.90
2022-08-26T09:44:22.926Z,6.20
2022-08-26T09:45:23.118Z,7.30
2022-08-26T09:46:23.385Z,6.90
2022-08-26T09:47:23.553Z,6.60
2022-08-26T09:48:23.637Z,7.00
2022-08-26T09:49:23.817Z,6.90
2022-08-26T09:50:24.006Z,6.60
2022-08-26T09:51:25.197Z,6.30
2022-08-26T09:52:24.702Z,6.20
2022-08-26T09:53:25.299Z,5.90
2022-08-26T09:54:25.719Z,6.50
2022-08-26T09:55:24.900Z,6.70
2022-08-26T09:56:25.072Z,6.10
2022-08-26T09:57:25.250Z,6.60
2022-08-26T09:58:25.442Z,6.40
2022-08-26T09:59:25.621Z,6.80
2022-08-26T10:00:25.931Z,6.50
2022-08-26T10:01:26.046Z,6.20
2022-08-26T10:02:26.173Z,6.70
2022-08-26T10:03:26.374Z,6.50
2022-08-26T10:04:26.867Z,6.30
2022-08-26T10:05:26.704Z,6.80
2022-08-26T10:06:26.884Z,6.70
2022-08-26T10:07:27.044Z,6.30
2022-08-26T10:08:27.247Z,6.60
2022-08-26T10:09:28.151Z,6.40
2022-08-26T10:10:27.592Z,7.00
2022-08-26T10:11:27.766Z,6.80
2022-08-26T10:12:27.947Z,6.60
2022-08-26T10:13:29.467Z,7.40
2022-08-26T10:14:28.337Z,7.60
2022-08-26T10:15:28.448Z,9.60
2022-08-26T10:16:28.717Z,9.80
2022-08-26T10:17:29.062Z,11.20
2022-08-26T10:18:33.321Z,11.20
2022-08-26T10:19:56.062Z,11.10
2022-08-26T10:20:30.334Z,12.70
2022-08-26T10:21:29.511Z,12.20
2022-08-26T10:22:29.681Z,13.10
2022-08-26T10:23:29.864Z,11.60
2022-08-26T10:24:30.032Z,12.10
2022-08-26T10:25:30.697Z,12.40
2022-08-26T10:26:30.365Z,11.00
2022-08-26T10:27:30.532Z,10.90
2022-08-26T10:28:30.697Z,11.40
2022-08-26T10:29:30.889Z,10.10
2022-08-26T10:30:31.054Z,10.20
2022-08-26T10:31:38.283Z,10.30
2022-08-26T10:32:32.425Z,10.20
2022-08-26T10:33:31.544Z,10.80
2022-08-26T10:34:31.731Z,10.00
2022-08-26T10:35:31.878Z,9.80
2022-08-26T10:36:36.403Z,9.60
2022-08-26T10:37:33.291Z,9.60
2022-08-26T10:38:32.428Z,9.80
2022-08-26T10:39:32.629Z,9.80
2022-08-26T10:40:32.830Z,9.10
2022-08-26T10:41:32.938Z,9.70
2022-08-26T10:42:33.136Z,9.50
2022-08-26T10:43:33.321Z,9.10
2022-08-26T10:44:33.523Z,8.70
2022-08-26T10:45:33.717Z,9.50
2022-08-26T10:46:33.860Z,9.30
2022-08-26T10:47:34.033Z,8.70
2022-08-26T10:48:35.586Z,9.50
2022-08-26T10:49:34.411Z,8.70
2022-08-26T10:50:34.581Z,9.20
2022-08-26T10:51:34.769Z,9.20
2022-08-26T10:52:34.944Z,8.90
2022-08-26T10:53:35.104Z,8.50
2022-08-26T10:54:35.314Z,8.70
2022-08-26T10:55:35.482Z,8.80
2022-08-26T10:56:35.659Z,8.20
2022-08-26T10:57:35.850Z,8.50
2022-08-26T10:58:36.046Z,8.70
2022-08-26T10:59:36.796Z,8.30
2022-08-26T11:00:36.396Z,8.10
2022-08-26T11:01:36.588Z,8.30
2022-08-26T11:02:36.726Z,8.30
2022-08-26T11:03:36.962Z,8.80
2022-08-26T11:04:37.183Z,8.30
2022-08-26T11:05:37.258Z,7.90
2022-08-26T11:06:37.439Z,8.10
2022-08-26T11:07:37.615Z,8.20
2022-08-26T11:08:37.808Z,8.10
2022-08-26T11:09:37.972Z,8.40
2022-08-26T11:10:38.151Z,7.60
2022-08-26T11:11:38.344Z,8.40
2022-08-26T11:12:38.511Z,8.20
2022-08-26T11:13:41.559Z,8.10
2022-08-26T11:14:53.507Z,8.70
2022-08-26T11:15:40.017Z,8.40
2022-08-26T11:16:43.530Z,8.00
2022-08-26T11:17:39.369Z,7.30
2022-08-26T11:18:39.553Z,8.00
2022-08-26T11:19:59.033Z,7.80
2022-08-26T11:20:41.781Z,7.90
2022-08-26T11:21:40.065Z,8.00
2022-08-26T11:22:48.036Z,7.60
2022-08-26T11:23:41.695Z,8.10
2022-08-26T11:24:40.616Z,7.10
2022-08-26T11:25:40.786Z,7.70
2022-08-26T11:26:55.693Z,8.20
2022-08-26T11:27:42.141Z,7.70
2022-08-26T11:28:44.160Z,7.30
2022-08-26T11:29:41.518Z,7.70
2022-08-26T11:30:41.689Z,7.30
2022-08-26T11:31:41.931Z,7.30
2022-08-26T11:32:42.069Z,7.10
2022-08-26T11:33:42.210Z,6.70
2022-08-26T11:34:42.392Z,6.90
2022-08-26T11:35:42.561Z,7.30
2022-08-26T11:36:42.742Z,7.40
2022-08-26T11:37:42.892Z,6.90
2022-08-26T11:38:43.081Z,6.70
2022-08-26T11:39:46.410Z,6.60
2022-08-26T11:40:43.524Z,6.70
2022-08-26T11:41:43.658Z,7.00
2022-08-26T11:42:43.814Z,6.60
2022-08-26T11:43:43.993Z,6.80
2022-08-26T11:44:49.698Z,6.70
2022-08-26T11:45:45.373Z,6.10
2022-08-26T11:46:44.527Z,6.50
2022-08-26T11:47:44.686Z,6.30
2022-08-26T11:48:44.846Z,6.00
2022-08-26T11:49:45.027Z,6.20
2022-08-26T11:50:45.218Z,6.20
2022-08-26T11:51:48.296Z,6.20
2022-08-26T11:52:45.568Z,6.70
2022-08-26T11:53:47.220Z,6.10
2022-08-26T11:54:45.930Z,6.50
2022-08-26T11:55:47.307Z,5.90
2022-08-26T11:56:46.279Z,5.90
2022-08-26T11:57:46.461Z,5.60
2022-08-26T11:58:46.651Z,5.80
2022-08-26T11:59:46.808Z,5.40
2022-08-26T12:00:47.013Z,5.70
2022-08-26T12:01:47.184Z,5.90
2022-08-26T12:02:47.364Z,5.20
2022-08-26T12:03:47.604Z,6.10
2022-08-26T12:04:47.765Z,5.60
2022-08-26T12:05:47.914Z,5.20
2022-08-26T12:06:48.065Z,5.50
2022-08-26T12:07:48.258Z,5.60
2022-08-26T12:08:48.446Z,5.20
2022-08-26T12:09:48.596Z,5.40
2022-08-26T12:10:48.817Z,5.70
2022-08-26T12:11:48.956Z,5.70
2022-08-26T12:12:49.127Z,5.40
2022-08-26T12:13:49.329Z,5.30
2022-08-26T12:14:49.516Z,5.40
2022-08-26T12:15:49.699Z,5.60
2022-08-26T12:16:49.895Z,5.30
2022-08-26T12:17:54.258Z,5.80
2022-08-26T12:18:50.219Z,5.20
2022-08-26T12:19:50.407Z,5.50
2022-08-26T12:20:50.621Z,5.90
2022-08-26T12:21:50.795Z,5.60
2022-08-26T12:22:50.951Z,4.90
2022-08-26T12:23:51.140Z,5.40
2022-08-26T12:24:51.330Z,5.30
2022-08-26T12:25:51.497Z,5.60
2022-08-26T12:26:51.664Z,5.10
2022-08-26T12:27:53.783Z,5.00
2022-08-26T12:28:52.021Z,5.30
2022-08-26T12:29:52.189Z,5.50
2022-08-26T12:30:52.384Z,5.60
2022-08-26T12:31:52.665Z,5.10
2022-08-26T12:32:57.832Z,5.40
2022-08-26T12:33:53.952Z,5.50
2022-08-26T12:34:53.111Z,5.20
2022-08-26T12:35:56.589Z,5.40
2022-08-26T12:36:53.594Z,5.30
2022-08-26T12:37:53.624Z,5.40
2022-08-26T12:38:57.992Z,5.20
2022-08-26T12:39:54.051Z,5.40
2022-08-26T12:40:54.146Z,5.00
2022-08-26T12:41:54.336Z,5.20
2022-08-26T12:42:54.517Z,5.20
2022-08-26T12:43:54.688Z,5.10
2022-08-26T12:44:54.847Z,5.20
2022-08-26T12:45:55.079Z,5.40
2022-08-26T12:46:55.230Z,5.50
2022-08-26T12:47:55.359Z,5.50
2022-08-26T12:48:55.544Z,4.90
2022-08-26T12:49:55.720Z,5.30
2022-08-26T12:50:55.912Z,5.30
2022-08-26T12:51:56.091Z,5.70
2022-08-26T12:52:56.261Z,5.40
2022-08-26T12:53:56.433Z,5.40
2022-08-26T12:54:57.152Z,5.40
2022-08-26T12:55:56.784Z,5.40
2022-08-26T12:56:56.971Z,5.20
2022-08-26T12:57:57.143Z,5.40
2022-08-26T12:58:57.327Z,5.10
2022-08-26T12:59:57.504Z,5.30
2022-08-26T13:00:57.888Z,5.40
2022-08-26T13:01:58.196Z,5.80
2022-08-26T13:02:58.006Z,5.50
2022-08-26T13:03:58.183Z,5.30
2022-08-26T13:05:00.727Z,5.90
2022-08-26T13:05:58.556Z,5.50
2022-08-26T13:06:58.715Z,6.10
2022-08-26T13:07:58.886Z,5.70
2022-08-26T13:08:59.072Z,5.60
2022-08-26T13:09:59.247Z,5.70
2022-08-26T13:10:59.429Z,5.70
2022-08-26T13:11:59.613Z,5.40
2022-08-26T13:12:59.789Z,5.70
2022-08-26T13:13:59.964Z,5.60
2022-08-26T13:15:00.159Z,5.70
2022-08-26T13:16:00.385Z,5.60
2022-08-26T13:17:00.509Z,5.40
2022-08-26T13:18:00.696Z,5.20
2022-08-26T13:19:00.901Z,5.70
2022-08-26T13:20:03.821Z,5.30
2022-08-26T13:21:01.203Z,5.50